createdAt,value
2023-09-23T00:00:02.410Z,0
2023-09-23T00:01:02.411Z,0
2023-09-23T00:02:02.475Z,0
2023-09-23T00:03:02.469Z,0
2023-09-23T00:04:02.584Z,0
2023-09-23T00:05:02.472Z,0
2023-09-23T00:06:02.417Z,0
2023-09-23T00:07:02.413Z,0
2023-09-23T00:08:02.618Z,0
2023-09-23T00:09:02.411Z,0
2023-09-23T00:10:02.416Z,0
2023-09-23T00:11:02.437Z,0
2023-09-23T00:12:02.417Z,0
2023-09-23T00:13:02.422Z,0
2023-09-23T00:14:02.471Z,0
2023-09-23T00:15:02.433Z,0
2023-09-23T00:16:02.454Z,0
2023-09-23T00:17:02.452Z,0
2023-09-23T00:18:02.429Z,0
2023-09-23T00:19:02.419Z,0
2023-09-23T00:20:02.481Z,0
2023-09-23T00:21:02.426Z,0
2023-09-23T00:22:02.430Z,0
2023-09-23T00:23:02.534Z,0
2023-09-23T00:24:02.457Z,0
2023-09-23T00:25:02.434Z,0
2023-09-23T00:26:02.467Z,0
2023-09-23T00:27:02.434Z,0
2023-09-23T00:28:02.428Z,0
2023-09-23T00:29:02.438Z,0
2023-09-23T00:30:02.439Z,0
2023-09-23T00:31:02.529Z,0
2023-09-23T00:32:02.505Z,0
2023-09-23T00:33:02.488Z,0
2023-09-23T00:34:02.453Z,0
2023-09-23T00:35:02.448Z,0
2023-09-23T00:36:02.434Z,0
2023-09-23T00:37:02.438Z,0
2023-09-23T00:38:02.452Z,0
2023-09-23T00:39:02.438Z,0
2023-09-23T00:40:02.456Z,0
2023-09-23T00:41:02.451Z,0
2023-09-23T00:42:02.439Z,0
2023-09-23T00:43:02.437Z,0
2023-09-23T00:44:02.499Z,0
2023-09-23T00:45:02.442Z,0
2023-09-23T00:46:02.465Z,0
2023-09-23T00:47:02.487Z,0
2023-09-23T00:48:02.471Z,0
2023-09-23T00:49:02.441Z,0
2023-09-23T00:50:02.484Z,0
2023-09-23T00:51:02.446Z,0
2023-09-23T00:52:02.442Z,0
2023-09-23T00:53:02.575Z,0
2023-09-23T00:54:02.460Z,0
2023-09-23T00:55:02.442Z,0
2023-09-23T00:56:02.503Z,0
2023-09-23T00:57:02.459Z,0
2023-09-23T00:58:02.463Z,0
2023-09-23T00:59:02.459Z,0
2023-09-23T01:00:02.480Z,0
2023-09-23T01:01:02.455Z,0
2023-09-23T01:02:02.509Z,0
2023-09-23T01:03:02.530Z,0
2023-09-23T01:04:02.612Z,0
2023-09-23T01:05:02.476Z,0
2023-09-23T01:06:02.457Z,0
2023-09-23T01:07:02.462Z,0
2023-09-23T01:08:02.483Z,0
2023-09-23T01:09:02.459Z,0
2023-09-23T01:10:02.483Z,0
2023-09-23T01:11:02.469Z,0
2023-09-23T01:12:02.484Z,0
2023-09-23T01:13:02.457Z,0
2023-09-23T01:14:02.503Z,0
2023-09-23T01:15:02.462Z,0
2023-09-23T01:16:02.512Z,0
2023-09-23T01:17:02.485Z,0
2023-09-23T01:18:02.565Z,0
2023-09-23T01:19:02.458Z,0
2023-09-23T01:20:02.510Z,0
2023-09-23T01:21:02.468Z,0
2023-09-23T01:22:02.466Z,0
2023-09-23T01:23:02.486Z,0
2023-09-23T01:24:02.467Z,0
2023-09-23T01:25:02.468Z,0
2023-09-23T01:26:02.467Z,0
2023-09-23T01:27:02.467Z,0
2023-09-23T01:28:02.581Z,0
2023-09-23T01:29:02.486Z,0
2023-09-23T01:30:02.467Z,0
2023-09-23T01:31:02.501Z,0
2023-09-23T01:32:02.520Z,0
2023-09-23T01:33:02.493Z,0
2023-09-23T01:34:02.471Z,0
2023-09-23T01:35:02.486Z,0
2023-09-23T01:36:02.465Z,0
2023-09-23T01:37:02.474Z,0
2023-09-23T01:38:02.521Z,0
2023-09-23T01:39:02.464Z,0
2023-09-23T01:40:02.466Z,0
2023-09-23T01:41:02.497Z,0
2023-09-23T01:42:02.467Z,0
2023-09-23T01:43:02.465Z,0
2023-09-23T01:44:02.540Z,0
2023-09-23T01:45:02.473Z,0
2023-09-23T01:46:02.474Z,0
2023-09-23T01:47:02.527Z,0
2023-09-23T01:48:02.560Z,0
2023-09-23T01:49:02.484Z,0
2023-09-23T01:50:02.563Z,0
2023-09-23T01:51:02.505Z,0
2023-09-23T01:52:02.482Z,0
2023-09-23T01:53:02.498Z,0
2023-09-23T01:54:02.491Z,0
2023-09-23T01:55:02.477Z,0
2023-09-23T01:56:02.495Z,0
2023-09-23T01:57:02.477Z,0
2023-09-23T01:58:02.477Z,0
2023-09-23T01:59:02.545Z,0
2023-09-23T02:00:02.502Z,0
2023-09-23T02:01:02.512Z,0
2023-09-23T02:02:02.571Z,0
2023-09-23T02:03:02.547Z,0
2023-09-23T02:04:02.489Z,0
2023-09-23T02:05:02.503Z,0
2023-09-23T02:06:02.561Z,0
2023-09-23T02:07:02.485Z,0
2023-09-23T02:08:02.520Z,0
2023-09-23T02:09:02.481Z,0
2023-09-23T02:10:02.485Z,0
2023-09-23T02:11:02.509Z,0
2023-09-23T02:12:02.491Z,0
2023-09-23T02:13:02.490Z,0
2023-09-23T02:14:02.572Z,0
2023-09-23T02:15:02.493Z,0
2023-09-23T02:16:02.525Z,0
2023-09-23T02:17:02.596Z,0
2023-09-23T02:18:02.510Z,0
2023-09-23T02:19:02.493Z,0
2023-09-23T02:20:02.511Z,0
2023-09-23T02:21:02.496Z,0
2023-09-23T02:22:02.498Z,0
2023-09-23T02:23:02.544Z,0
2023-09-23T02:24:02.502Z,0
2023-09-23T02:25:02.497Z,0
2023-09-23T02:26:02.534Z,0
2023-09-23T02:27:02.527Z,0
2023-09-23T02:28:02.507Z,0
2023-09-23T02:29:02.528Z,0
2023-09-23T02:30:02.502Z,0
2023-09-23T02:31:02.515Z,0
2023-09-23T02:32:02.532Z,0
2023-09-23T02:33:02.578Z,0
2023-09-23T02:34:02.505Z,0
2023-09-23T02:35:02.567Z,0
2023-09-23T02:36:02.521Z,0
2023-09-23T02:37:02.503Z,0
2023-09-23T02:38:02.542Z,0
2023-09-23T02:39:02.502Z,0
2023-09-23T02:40:02.528Z,0
2023-09-23T02:41:02.561Z,0
2023-09-23T02:42:02.512Z,0
2023-09-23T02:43:02.508Z,0
2023-09-23T02:44:02.527Z,0
2023-09-23T02:45:02.513Z,0
2023-09-23T02:46:02.526Z,0
2023-09-23T02:47:02.553Z,0
2023-09-23T02:48:02.562Z,0
2023-09-23T02:49:02.526Z,0
2023-09-23T02:50:02.574Z,0
2023-09-23T02:51:02.514Z,0
2023-09-23T02:52:02.525Z,0
2023-09-23T02:53:02.581Z,0
2023-09-23T02:54:02.524Z,0
2023-09-23T02:55:02.517Z,0
2023-09-23T02:56:02.555Z,0
2023-09-23T02:57:02.517Z,0
2023-09-23T02:58:02.529Z,0
2023-09-23T02:59:02.544Z,0
2023-09-23T03:00:02.517Z,0
2023-09-23T03:01:02.523Z,0
2023-09-23T03:02:02.621Z,0
2023-09-23T03:03:02.558Z,0
2023-09-23T03:04:02.605Z,0
2023-09-23T03:05:02.579Z,0
2023-09-23T03:06:02.617Z,0
2023-09-23T03:07:02.527Z,0
2023-09-23T03:08:02.554Z,0
2023-09-23T03:09:02.522Z,0
2023-09-23T03:10:02.540Z,0
2023-09-23T03:11:02.548Z,0
2023-09-23T03:12:02.519Z,0
2023-09-23T03:13:02.522Z,0
2023-09-23T03:14:02.624Z,0
2023-09-23T03:15:02.517Z,0
2023-09-23T03:16:02.559Z,0
2023-09-23T03:17:02.576Z,0
2023-09-23T03:18:02.623Z,0
2023-09-23T03:19:02.518Z,0
2023-09-23T03:20:02.603Z,0
2023-09-23T03:21:02.523Z,0
2023-09-23T03:22:02.519Z,0
2023-09-23T03:23:02.533Z,0
2023-09-23T03:24:02.513Z,0
2023-09-23T03:25:02.518Z,0
2023-09-23T03:26:02.520Z,0
2023-09-23T03:27:02.515Z,0
2023-09-23T03:28:02.517Z,0
2023-09-23T03:29:02.556Z,0
2023-09-23T03:30:04.383Z,0
2023-09-23T03:31:02.510Z,0
2023-09-23T03:32:02.587Z,0
2023-09-23T03:33:02.568Z,0
2023-09-23T03:34:02.513Z,0
2023-09-23T03:35:02.558Z,0
2023-09-23T03:36:02.541Z,0
2023-09-23T03:37:10.031Z,0
2023-09-23T03:38:02.559Z,0
2023-09-23T03:39:02.517Z,0
2023-09-23T03:40:02.531Z,0
2023-09-23T03:41:02.541Z,0
2023-09-23T03:42:02.512Z,0
2023-09-23T03:43:02.509Z,0
2023-09-23T03:44:02.538Z,0
2023-09-23T03:45:02.512Z,0
2023-09-23T03:46:02.552Z,0
2023-09-23T03:47:02.555Z,0
2023-09-23T03:48:02.529Z,0
2023-09-23T03:49:02.514Z,0
2023-09-23T03:50:02.560Z,0
2023-09-23T03:51:02.510Z,0
2023-09-23T03:52:02.548Z,0
2023-09-23T03:53:02.524Z,0
2023-09-23T03:54:02.514Z,0
2023-09-23T03:55:02.523Z,0
2023-09-23T03:56:02.557Z,0
2023-09-23T03:57:02.523Z,0
2023-09-23T03:58:02.517Z,0
2023-09-23T03:59:02.531Z,0
2023-09-23T04:00:02.520Z,0
2023-09-23T04:01:02.519Z,0
2023-09-23T04:02:02.545Z,0
2023-09-23T04:03:02.554Z,0
2023-09-23T04:04:02.630Z,0
2023-09-23T04:05:02.559Z,0
2023-09-23T04:06:02.521Z,0
2023-09-23T04:07:02.530Z,0
2023-09-23T04:08:02.588Z,0
2023-09-23T04:09:02.526Z,0
2023-09-23T04:10:02.517Z,0
2023-09-23T04:11:02.541Z,0
2023-09-23T04:12:02.535Z,0
2023-09-23T04:13:02.531Z,0
2023-09-23T04:14:02.610Z,0
2023-09-23T04:15:02.518Z,0
2023-09-23T04:16:02.628Z,0
2023-09-23T04:17:02.537Z,0
2023-09-23T04:18:02.539Z,0
2023-09-23T04:19:02.519Z,0
2023-09-23T04:20:02.547Z,0
2023-09-23T04:21:02.587Z,0
2023-09-23T04:22:02.522Z,0
2023-09-23T04:23:02.554Z,0
2023-09-23T04:24:02.554Z,0
2023-09-23T04:25:02.522Z,0
2023-09-23T04:26:02.533Z,0
2023-09-23T04:27:02.526Z,0
2023-09-23T04:28:02.528Z,0
2023-09-23T04:29:02.549Z,0
2023-09-23T04:30:02.534Z,0
2023-09-23T04:31:02.528Z,0
2023-09-23T04:32:02.562Z,0
2023-09-23T04:33:02.635Z,0
2023-09-23T04:34:02.539Z,0
2023-09-23T04:35:02.544Z,0
2023-09-23T04:36:02.529Z,0
2023-09-23T04:37:02.526Z,0
2023-09-23T04:38:02.552Z,0
2023-09-23T04:39:02.529Z,0
2023-09-23T04:40:02.570Z,0
2023-09-23T04:41:02.612Z,0
2023-09-23T04:42:02.536Z,0
2023-09-23T04:43:02.538Z,1
2023-09-23T04:44:02.558Z,1
2023-09-23T04:45:02.528Z,1
2023-09-23T04:46:02.536Z,1
2023-09-23T04:47:02.555Z,1
2023-09-23T04:48:02.590Z,4
2023-09-23T04:49:02.541Z,4
2023-09-23T04:50:02.568Z,4
2023-09-23T04:51:02.534Z,4
2023-09-23T04:52:02.530Z,4
2023-09-23T04:53:02.554Z,8
2023-09-23T04:54:02.539Z,8
2023-09-23T04:55:02.532Z,8
2023-09-23T04:56:02.596Z,8
2023-09-23T04:57:02.528Z,8
2023-09-23T04:58:02.533Z,11
2023-09-23T04:59:02.575Z,11
2023-09-23T05:00:02.528Z,11
2023-09-23T05:01:02.540Z,11
2023-09-23T05:02:02.559Z,11
2023-09-23T05:03:02.550Z,11
2023-09-23T05:04:02.549Z,11
2023-09-23T05:05:02.565Z,11
2023-09-23T05:06:02.531Z,11
2023-09-23T05:07:02.537Z,11
2023-09-23T05:08:02.544Z,15
2023-09-23T05:09:02.528Z,15
2023-09-23T05:10:02.528Z,15
2023-09-23T05:11:02.618Z,15
2023-09-23T05:12:02.558Z,15
2023-09-23T05:13:02.528Z,17
2023-09-23T05:14:02.583Z,17
2023-09-23T05:15:02.545Z,17
2023-09-23T05:16:02.557Z,17
2023-09-23T05:17:02.583Z,17
2023-09-23T05:18:02.581Z,21
2023-09-23T05:19:02.557Z,21
2023-09-23T05:20:02.569Z,21
2023-09-23T05:21:02.531Z,21
2023-09-23T05:22:02.534Z,21
2023-09-23T05:23:02.551Z,39
2023-09-23T05:24:02.531Z,39
2023-09-23T05:25:02.534Z,39
2023-09-23T05:26:02.584Z,39
2023-09-23T05:27:02.536Z,39
2023-09-23T05:28:02.565Z,58
2023-09-23T05:29:02.582Z,58
2023-09-23T05:30:02.532Z,58
2023-09-23T05:31:02.546Z,58
2023-09-23T05:32:02.560Z,58
2023-09-23T05:33:02.556Z,62
2023-09-23T05:34:02.557Z,62
2023-09-23T05:35:02.554Z,62
2023-09-23T05:36:02.536Z,62
2023-09-23T05:37:02.533Z,62
2023-09-23T05:38:02.558Z,76
2023-09-23T05:39:02.542Z,76
2023-09-23T05:40:02.540Z,76
2023-09-23T05:41:02.560Z,76
2023-09-23T05:42:02.539Z,76
2023-09-23T05:43:02.532Z,83
2023-09-23T05:44:02.584Z,83
2023-09-23T05:45:02.534Z,83
2023-09-23T05:46:02.537Z,83
2023-09-23T05:47:04.202Z,83
2023-09-23T05:48:02.587Z,88
2023-09-23T05:49:02.530Z,88
2023-09-23T05:50:02.565Z,88
2023-09-23T05:51:02.535Z,88
2023-09-23T05:52:02.531Z,88
2023-09-23T05:53:02.556Z,74
2023-09-23T05:54:02.535Z,74
2023-09-23T05:55:02.542Z,74
2023-09-23T05:56:02.589Z,74
2023-09-23T05:57:02.541Z,74
2023-09-23T05:58:02.536Z,71
2023-09-23T05:59:02.572Z,71
2023-09-23T06:00:02.613Z,71
2023-09-23T06:01:02.549Z,71
2023-09-23T06:02:02.561Z,71
2023-09-23T06:03:02.647Z,91
2023-09-23T06:04:02.576Z,91
2023-09-23T06:05:02.620Z,91
2023-09-23T06:06:02.538Z,91
2023-09-23T06:07:02.541Z,91
2023-09-23T06:08:02.573Z,94
2023-09-23T06:09:02.542Z,94
2023-09-23T06:10:02.557Z,94
2023-09-23T06:11:02.551Z,94
2023-09-23T06:12:02.544Z,94
2023-09-23T06:13:02.541Z,97
2023-09-23T06:14:02.552Z,97
2023-09-23T06:15:02.532Z,97
2023-09-23T06:16:02.565Z,97
2023-09-23T06:17:02.611Z,97
2023-09-23T06:18:02.615Z,95
2023-09-23T06:19:02.545Z,95
2023-09-23T06:20:02.587Z,95
2023-09-23T06:21:02.541Z,95
2023-09-23T06:22:02.541Z,95
2023-09-23T06:23:02.617Z,85
2023-09-23T06:24:02.544Z,85
2023-09-23T06:25:02.544Z,85
2023-09-23T06:26:02.648Z,85
2023-09-23T06:27:02.544Z,85
2023-09-23T06:28:02.562Z,82
2023-09-23T06:29:02.577Z,82
2023-09-23T06:30:02.588Z,82
2023-09-23T06:31:02.622Z,82
2023-09-23T06:32:02.653Z,82
2023-09-23T06:33:02.638Z,94
2023-09-23T06:34:02.554Z,94
2023-09-23T06:35:02.603Z,94
2023-09-23T06:36:02.559Z,94
2023-09-23T06:37:02.557Z,94
2023-09-23T06:38:02.586Z,183
2023-09-23T06:39:02.568Z,183
2023-09-23T06:40:02.550Z,183
2023-09-23T06:41:02.570Z,183
2023-09-23T06:42:02.559Z,183
2023-09-23T06:43:02.561Z,213
2023-09-23T06:44:02.594Z,213
2023-09-23T06:45:02.556Z,213
2023-09-23T06:46:02.624Z,213
2023-09-23T06:47:03.330Z,213
2023-09-23T06:48:02.618Z,225
2023-09-23T06:49:02.558Z,225
2023-09-23T06:50:02.591Z,225
2023-09-23T06:51:02.561Z,225
2023-09-23T06:52:02.577Z,225
2023-09-23T06:53:02.584Z,355
2023-09-23T06:54:02.564Z,355
2023-09-23T06:55:02.572Z,355
2023-09-23T06:56:02.641Z,355
2023-09-23T06:57:02.560Z,355
2023-09-23T06:58:02.562Z,429
2023-09-23T06:59:02.603Z,429
2023-09-23T07:00:02.562Z,429
2023-09-23T07:01:02.566Z,429
2023-09-23T07:02:02.670Z,429
2023-09-23T07:03:02.731Z,420
2023-09-23T07:04:02.644Z,420
2023-09-23T07:05:02.614Z,420
2023-09-23T07:06:02.572Z,420
2023-09-23T07:07:02.570Z,420
2023-09-23T07:08:02.615Z,412
2023-09-23T07:09:02.569Z,412
2023-09-23T07:10:02.591Z,412
2023-09-23T07:11:02.619Z,412
2023-09-23T07:12:02.581Z,412
2023-09-23T07:13:02.577Z,481
2023-09-23T07:14:02.574Z,481
2023-09-23T07:15:02.578Z,481
2023-09-23T07:16:02.590Z,481
2023-09-23T07:17:02.596Z,481
2023-09-23T07:18:02.619Z,483
2023-09-23T07:19:02.579Z,483
2023-09-23T07:20:02.635Z,483
2023-09-23T07:21:02.575Z,483
2023-09-23T07:22:02.581Z,483
2023-09-23T07:23:02.603Z,617
2023-09-23T07:24:03.379Z,617
2023-09-23T07:25:02.631Z,617
2023-09-23T07:26:02.632Z,617
2023-09-23T07:27:02.579Z,617
2023-09-23T07:28:02.592Z,693
2023-09-23T07:29:02.588Z,693
2023-09-23T07:30:02.585Z,693
2023-09-23T07:31:02.607Z,693
2023-09-23T07:32:02.643Z,693
2023-09-23T07:33:02.607Z,624
2023-09-23T07:34:02.644Z,624
2023-09-23T07:35:02.603Z,624
2023-09-23T07:36:02.621Z,624
2023-09-23T07:37:02.588Z,624
2023-09-23T07:38:02.724Z,655
2023-09-23T07:39:02.596Z,655
2023-09-23T07:40:02.589Z,655
2023-09-23T07:41:02.639Z,655
2023-09-23T07:42:02.587Z,655
2023-09-23T07:43:02.593Z,682
2023-09-23T07:44:02.602Z,682
2023-09-23T07:45:02.595Z,682
2023-09-23T07:46:02.629Z,682
2023-09-23T07:47:02.630Z,682
2023-09-23T07:48:02.641Z,634
2023-09-23T07:49:05.206Z,634
2023-09-23T07:50:02.649Z,634
2023-09-23T07:51:02.629Z,634
2023-09-23T07:52:02.620Z,634
2023-09-23T07:53:02.622Z,635
2023-09-23T07:54:02.598Z,635
2023-09-23T07:55:02.593Z,635
2023-09-23T07:56:02.631Z,635
2023-09-23T07:57:02.601Z,635
2023-09-23T07:58:02.601Z,616
2023-09-23T07:59:02.639Z,616
2023-09-23T08:00:02.604Z,616
2023-09-23T08:01:02.601Z,616
2023-09-23T08:02:02.673Z,616
2023-09-23T08:03:02.641Z,770
2023-09-23T08:04:02.624Z,770
2023-09-23T08:05:02.683Z,770
2023-09-23T08:06:02.601Z,770
2023-09-23T08:07:02.606Z,770
2023-09-23T08:08:02.661Z,713
2023-09-23T08:09:02.606Z,713
2023-09-23T08:10:02.598Z,713
2023-09-23T08:11:02.629Z,713
2023-09-23T08:12:02.601Z,713
2023-09-23T08:13:02.609Z,720
2023-09-23T08:14:02.650Z,720
2023-09-23T08:15:02.609Z,720
2023-09-23T08:16:02.634Z,720
2023-09-23T08:17:02.646Z,720
2023-09-23T08:18:02.630Z,676
2023-09-23T08:19:02.608Z,676
2023-09-23T08:20:02.643Z,676
2023-09-23T08:21:02.605Z,676
2023-09-23T08:22:02.617Z,676
2023-09-23T08:23:02.640Z,766
2023-09-23T08:24:02.631Z,766
2023-09-23T08:25:02.608Z,766
2023-09-23T08:26:02.630Z,766
2023-09-23T08:27:02.623Z,766
2023-09-23T08:28:02.630Z,633
2023-09-23T08:29:02.669Z,633
2023-09-23T08:30:02.604Z,633
2023-09-23T08:31:02.621Z,633
2023-09-23T08:32:02.734Z,633
2023-09-23T08:33:02.677Z,754
2023-09-23T08:34:02.604Z,754
2023-09-23T08:35:02.650Z,754
2023-09-23T08:36:02.610Z,754
2023-09-23T08:37:02.605Z,754
2023-09-23T08:38:02.647Z,822
2023-09-23T08:39:02.619Z,822
2023-09-23T08:40:02.636Z,822
2023-09-23T08:41:02.637Z,822
2023-09-23T08:42:02.612Z,822
2023-09-23T08:43:02.610Z,927
2023-09-23T08:44:02.606Z,927
2023-09-23T08:45:02.606Z,927
2023-09-23T08:46:02.656Z,927
2023-09-23T08:47:02.661Z,927
2023-09-23T08:48:02.655Z,911
2023-09-23T08:49:02.617Z,911
2023-09-23T08:50:02.641Z,911
2023-09-23T08:51:02.622Z,911
2023-09-23T08:52:02.611Z,911
2023-09-23T08:53:02.683Z,1124
2023-09-23T08:54:03.314Z,1124
2023-09-23T08:55:02.610Z,1124
2023-09-23T08:56:02.709Z,1124
2023-09-23T08:57:02.615Z,1124
2023-09-23T08:58:02.614Z,1331
2023-09-23T08:59:02.654Z,1331
2023-09-23T09:00:03.202Z,1331
2023-09-23T09:01:02.629Z,1331
2023-09-23T09:02:02.667Z,1331
2023-09-23T09:03:02.676Z,1427
2023-09-23T09:04:02.617Z,1427
2023-09-23T09:05:02.708Z,1427
2023-09-23T09:06:02.726Z,1454
2023-09-23T09:07:02.616Z,1463
2023-09-23T09:08:02.646Z,1463
2023-09-23T09:09:02.614Z,1492
2023-09-23T09:10:02.621Z,1420
2023-09-23T09:11:02.763Z,1436
2023-09-23T09:12:02.652Z,1467
2023-09-23T09:13:02.620Z,1467
2023-09-23T09:14:02.640Z,1467
2023-09-23T09:15:02.636Z,1467
2023-09-23T09:16:02.638Z,1467
2023-09-23T09:17:02.665Z,1294
2023-09-23T09:18:02.661Z,1294
2023-09-23T09:19:02.625Z,1455
2023-09-23T09:20:02.647Z,1455
2023-09-23T09:21:02.643Z,1455
2023-09-23T09:22:02.621Z,1455
2023-09-23T09:23:02.662Z,1455
2023-09-23T09:24:02.668Z,1702
2023-09-23T09:25:02.619Z,1702
2023-09-23T09:26:02.680Z,1702
2023-09-23T09:27:02.619Z,1702
2023-09-23T09:28:02.647Z,1702
2023-09-23T09:29:02.650Z,1786
2023-09-23T09:30:12.861Z,1747
2023-09-23T09:31:02.676Z,1747
2023-09-23T09:32:02.640Z,1665
2023-09-23T09:33:02.704Z,1648
2023-09-23T09:34:02.632Z,1582
2023-09-23T09:35:02.667Z,1575
2023-09-23T09:36:02.629Z,1574
2023-09-23T09:37:02.626Z,1592
2023-09-23T09:38:11.455Z,1553
2023-09-23T09:39:02.684Z,1524
2023-09-23T09:40:02.625Z,1524
2023-09-23T09:41:02.633Z,1433
2023-09-23T09:42:02.623Z,1379
2023-09-23T09:43:02.624Z,1379
2023-09-23T09:44:02.676Z,1379
2023-09-23T09:45:02.625Z,1404
2023-09-23T09:46:02.628Z,1404
2023-09-23T09:47:02.704Z,1324
2023-09-23T09:48:02.658Z,1324
2023-09-23T09:49:02.628Z,1324
2023-09-23T09:50:02.640Z,1324
2023-09-23T09:51:02.634Z,1463
2023-09-23T09:52:02.636Z,1468
2023-09-23T09:53:02.645Z,1466
2023-09-23T09:54:02.629Z,1466
2023-09-23T09:55:02.635Z,1466
2023-09-23T09:56:02.668Z,1466
2023-09-23T09:57:02.631Z,1205
2023-09-23T09:58:02.659Z,1292
2023-09-23T09:59:02.653Z,1282
2023-09-23T10:00:02.660Z,1282
2023-09-23T10:01:02.639Z,1256
2023-09-23T10:02:02.661Z,1216
2023-09-23T10:03:02.719Z,1216
2023-09-23T10:04:02.661Z,1216
2023-09-23T10:05:02.649Z,1274
2023-09-23T10:06:02.632Z,1242
2023-09-23T10:07:02.636Z,1218
2023-09-23T10:08:02.651Z,1218
2023-09-23T10:09:02.635Z,1218
2023-09-23T10:10:02.641Z,1218
2023-09-23T10:11:02.681Z,1218
2023-09-23T10:12:02.643Z,1128
2023-09-23T10:13:02.636Z,1128
2023-09-23T10:14:02.696Z,1128
2023-09-23T10:15:02.650Z,1128
2023-09-23T10:16:02.681Z,1158
2023-09-23T10:17:02.686Z,1173
2023-09-23T10:18:02.738Z,1173
2023-09-23T10:19:02.710Z,1173
2023-09-23T10:20:02.705Z,1086
2023-09-23T10:21:02.640Z,1042
2023-09-23T10:22:02.647Z,1042
2023-09-23T10:23:02.649Z,1042
2023-09-23T10:24:02.660Z,1166
2023-09-23T10:25:02.644Z,1263
2023-09-23T10:26:02.662Z,1261
2023-09-23T10:27:02.638Z,1261
2023-09-23T10:28:02.668Z,1261
2023-09-23T10:29:02.688Z,1261
2023-09-23T10:30:02.640Z,1261
2023-09-23T10:31:02.732Z,1486
2023-09-23T10:32:02.669Z,1486
2023-09-23T10:33:02.655Z,1486
2023-09-23T10:34:02.648Z,1486
2023-09-23T10:35:02.675Z,1486
2023-09-23T10:36:02.664Z,1657
2023-09-23T10:37:02.646Z,1657
2023-09-23T10:38:02.662Z,1657
2023-09-23T10:39:02.648Z,1657
2023-09-23T10:40:02.666Z,1657
2023-09-23T10:41:02.667Z,1416
2023-09-23T10:42:02.647Z,1416
2023-09-23T10:43:02.646Z,1416
2023-09-23T10:44:02.676Z,1416
2023-09-23T10:45:02.646Z,1416
2023-09-23T10:46:02.659Z,1410
2023-09-23T10:47:02.710Z,1410
2023-09-23T10:48:02.684Z,1366
2023-09-23T10:49:02.679Z,1329
2023-09-23T10:50:02.690Z,1338
2023-09-23T10:51:02.661Z,1338
2023-09-23T10:52:02.650Z,1338
2023-09-23T10:53:02.677Z,1338
2023-09-23T10:54:02.646Z,1338
2023-09-23T10:55:02.656Z,1393
2023-09-23T10:56:02.681Z,1361
2023-09-23T10:57:02.653Z,1358
2023-09-23T10:58:02.662Z,1358
2023-09-23T10:59:02.673Z,1349
2023-09-23T11:00:02.661Z,1349
2023-09-23T11:01:02.661Z,1365
2023-09-23T11:02:02.732Z,1389
2023-09-23T11:03:02.695Z,1414
2023-09-23T11:04:02.782Z,1414
2023-09-23T11:05:02.709Z,1518
2023-09-23T11:06:02.657Z,1518
2023-09-23T11:07:02.662Z,1656
2023-09-23T11:08:02.688Z,1656
2023-09-23T11:09:02.652Z,1723
2023-09-23T11:10:02.658Z,1779
2023-09-23T11:11:02.673Z,1903
2023-09-23T11:12:02.656Z,2065
2023-09-23T11:13:02.660Z,2065
2023-09-23T11:14:02.668Z,2451
2023-09-23T11:15:02.668Z,2600
2023-09-23T11:16:02.679Z,2820
2023-09-23T11:17:02.667Z,2955
2023-09-23T11:18:02.718Z,3054
2023-09-23T11:19:02.657Z,2966
2023-09-23T11:20:02.714Z,2938
2023-09-23T11:21:02.654Z,2909
2023-09-23T11:22:02.657Z,2787
2023-09-23T11:23:02.696Z,2682
2023-09-23T11:24:02.658Z,2606
2023-09-23T11:25:02.654Z,2641
2023-09-23T11:26:02.813Z,2747
2023-09-23T11:27:02.660Z,2911
2023-09-23T11:28:02.667Z,3087
2023-09-23T11:29:02.681Z,3104
2023-09-23T11:30:02.666Z,3100
2023-09-23T11:31:02.687Z,3026
2023-09-23T11:32:02.736Z,2933
2023-09-23T11:33:02.674Z,2862
2023-09-23T11:34:02.666Z,2733
2023-09-23T11:35:02.715Z,2537
2023-09-23T11:36:02.691Z,2365
2023-09-23T11:37:02.669Z,2225
2023-09-23T11:38:02.693Z,2108
2023-09-23T11:39:02.668Z,2030
2023-09-23T11:40:02.665Z,2018
2023-09-23T11:41:02.687Z,2029
2023-09-23T11:42:02.661Z,2048
2023-09-23T11:43:02.673Z,2065
2023-09-23T11:44:02.682Z,2032
2023-09-23T11:45:02.660Z,1922
2023-09-23T11:46:02.687Z,1823
2023-09-23T11:47:02.688Z,1722
2023-09-23T11:48:02.683Z,1632
2023-09-23T11:49:02.676Z,1655
2023-09-23T11:50:02.691Z,1629
2023-09-23T11:51:02.670Z,1618
2023-09-23T11:52:02.692Z,1605
2023-09-23T11:53:02.756Z,1611
2023-09-23T11:54:02.673Z,1612
2023-09-23T11:55:02.713Z,1590
2023-09-23T11:56:02.709Z,1593
2023-09-23T11:57:02.677Z,1541
2023-09-23T11:58:02.750Z,1511
2023-09-23T11:59:08.157Z,1498
2023-09-23T12:00:02.672Z,1411
2023-09-23T12:01:02.680Z,1340
2023-09-23T12:02:02.712Z,1238
2023-09-23T12:03:02.721Z,1163
2023-09-23T12:04:02.893Z,1125
2023-09-23T12:05:02.752Z,1138
2023-09-23T12:06:02.737Z,1089
2023-09-23T12:07:02.676Z,1102
2023-09-23T12:08:02.759Z,1047
2023-09-23T12:09:02.685Z,1018
2023-09-23T12:10:02.678Z,988
2023-09-23T12:11:02.694Z,999
2023-09-23T12:12:02.689Z,943
2023-09-23T12:13:02.692Z,923
2023-09-23T12:14:02.703Z,903
2023-09-23T12:15:02.693Z,884
2023-09-23T12:16:02.727Z,874
2023-09-23T12:17:02.760Z,855
2023-09-23T12:18:02.750Z,873
2023-09-23T12:19:02.685Z,827
2023-09-23T12:20:02.734Z,851
2023-09-23T12:21:02.681Z,816
2023-09-23T12:22:02.691Z,809
2023-09-23T12:23:02.762Z,809
2023-09-23T12:24:02.705Z,809
2023-09-23T12:25:02.686Z,816
2023-09-23T12:26:02.773Z,825
2023-09-23T12:27:02.697Z,831
2023-09-23T12:28:02.681Z,837
2023-09-23T12:29:02.758Z,896
2023-09-23T12:30:02.679Z,882
2023-09-23T12:31:02.684Z,888
2023-09-23T12:32:02.715Z,926
2023-09-23T12:33:02.695Z,905
2023-09-23T12:34:02.695Z,919
2023-09-23T12:35:02.703Z,969
2023-09-23T12:36:02.783Z,952
2023-09-23T12:37:02.692Z,975
2023-09-23T12:38:02.715Z,1026
2023-09-23T12:39:02.686Z,1004
2023-09-23T12:40:02.708Z,1008
2023-09-23T12:41:02.689Z,1008
2023-09-23T12:42:02.689Z,992
2023-09-23T12:43:02.683Z,982
2023-09-23T12:44:02.722Z,967
2023-09-23T12:45:04.788Z,969
2023-09-23T12:46:02.778Z,977
2023-09-23T12:47:02.711Z,990
2023-09-23T12:48:02.719Z,1019
2023-09-23T12:49:02.758Z,1037
2023-09-23T12:50:02.710Z,1086
2023-09-23T12:51:02.692Z,1060
2023-09-23T12:52:02.690Z,1060
2023-09-23T12:53:02.722Z,1054
2023-09-23T12:54:02.690Z,1084
2023-09-23T12:55:02.704Z,1043
2023-09-23T12:56:02.899Z,1035
2023-09-23T12:57:02.687Z,1027
2023-09-23T12:58:02.694Z,1059
2023-09-23T12:59:02.692Z,1039
2023-09-23T13:00:02.688Z,1040
2023-09-23T13:01:02.698Z,1063
2023-09-23T13:02:02.736Z,1114
2023-09-23T13:03:02.856Z,1105
2023-09-23T13:04:02.806Z,1111
2023-09-23T13:05:02.773Z,1127
2023-09-23T13:06:02.712Z,1158
2023-09-23T13:07:02.692Z,1266
2023-09-23T13:08:02.715Z,1266
2023-09-23T13:09:02.695Z,1324
2023-09-23T13:10:02.711Z,1306
2023-09-23T13:11:02.723Z,1206
2023-09-23T13:12:02.718Z,1134
2023-09-23T13:13:02.692Z,1096
2023-09-23T13:14:02.716Z,995
2023-09-23T13:15:02.692Z,988
2023-09-23T13:16:02.855Z,1008
2023-09-23T13:17:02.720Z,1012
2023-09-23T13:18:02.739Z,1012
2023-09-23T13:19:02.694Z,1012
2023-09-23T13:20:02.732Z,1243
2023-09-23T13:21:02.693Z,1451
2023-09-23T13:22:02.697Z,1474
2023-09-23T13:23:04.035Z,1641
2023-09-23T13:24:02.697Z,1695
2023-09-23T13:25:02.707Z,1716
2023-09-23T13:26:02.719Z,1671
2023-09-23T13:27:02.694Z,1632
2023-09-23T13:28:02.720Z,1576
2023-09-23T13:29:02.707Z,1500
2023-09-23T13:30:02.704Z,1435
2023-09-23T13:31:02.701Z,1387
2023-09-23T13:32:02.718Z,1363
2023-09-23T13:33:02.742Z,1260
2023-09-23T13:34:04.160Z,1190
2023-09-23T13:35:02.736Z,1185
2023-09-23T13:36:02.729Z,1133
2023-09-23T13:37:02.694Z,1126
2023-09-23T13:38:02.705Z,1116
2023-09-23T13:39:02.698Z,1102
2023-09-23T13:40:02.732Z,1091
2023-09-23T13:41:02.740Z,1110
2023-09-23T13:42:02.696Z,1151
2023-09-23T13:43:02.695Z,1122
2023-09-23T13:44:02.734Z,1114
2023-09-23T13:45:02.705Z,1017
2023-09-23T13:46:02.768Z,949
2023-09-23T13:47:02.726Z,949
2023-09-23T13:48:02.773Z,856
2023-09-23T13:49:02.706Z,834
2023-09-23T13:50:02.726Z,762
2023-09-23T13:51:02.695Z,737
2023-09-23T13:52:02.696Z,721
2023-09-23T13:53:02.738Z,721
2023-09-23T13:54:02.702Z,721
2023-09-23T13:55:02.716Z,721
2023-09-23T13:56:02.764Z,721
2023-09-23T13:57:02.709Z,656
2023-09-23T13:58:02.702Z,668
2023-09-23T13:59:02.735Z,629
2023-09-23T14:00:02.742Z,629
2023-09-23T14:01:02.783Z,629